sensor_id;sensor_type;location;lat;lon;timestamp;P1;durP1;ratioP1;P2;durP2;ratioP2
51792;SDS011;37850;53.178;6.376;2022-11-20T00:00:56;30.67;;;12.93;;
51792;SDS011;37850;53.178;6.376;2022-11-20T00:03:22;28.58;;;13.35;;
51792;SDS011;37850;53.178;6.376;2022-11-20T00:05:48;26.73;;;12.52;;
51792;SDS011;37850;53.178;6.376;2022-11-20T00:08:14;27.88;;;13.10;;
51792;SDS011;37850;53.178;6.376;2022-11-20T00:10:40;23.80;;;12.52;;
51792;SDS011;37850;53.178;6.376;2022-11-20T00:13:05;22.00;;;12.48;;
51792;SDS011;37850;53.178;6.376;2022-11-20T00:15:32;26.10;;;13.52;;
51792;SDS011;37850;53.178;6.376;2022-11-20T00:17:58;24.23;;;13.43;;
51792;SDS011;37850;53.178;6.376;2022-11-20T00:20:24;24.35;;;12.63;;
51792;SDS011;37850;53.178;6.376;2022-11-20T00:22:50;27.45;;;12.63;;
51792;SDS011;37850;53.178;6.376;2022-11-20T00:25:16;24.65;;;12.27;;
51792;SDS011;37850;53.178;6.376;2022-11-20T00:27:42;26.05;;;12.95;;
51792;SDS011;37850;53.178;6.376;2022-11-20T00:30:08;25.33;;;12.15;;
51792;SDS011;37850;53.178;6.376;2022-11-20T00:32:34;25.10;;;12.82;;
51792;SDS011;37850;53.178;6.376;2022-11-20T00:35:00;24.42;;;12.95;;
51792;SDS011;37850;53.178;6.376;2022-11-20T00:37:25;24.63;;;12.63;;
51792;SDS011;37850;53.178;6.376;2022-11-20T00:39:51;26.92;;;13.05;;
51792;SDS011;37850;53.178;6.376;2022-11-20T00:42:17;25.10;;;12.55;;
51792;SDS011;37850;53.178;6.376;2022-11-20T00:44:42;26.90;;;13.45;;
51792;SDS011;37850;53.178;6.376;2022-11-20T00:47:08;25.75;;;13.48;;
51792;SDS011;37850;53.178;6.376;2022-11-20T00:49:34;28.75;;;13.77;;
51792;SDS011;37850;53.178;6.376;2022-11-20T00:51:59;27.50;;;12.45;;
51792;SDS011;37850;53.178;6.376;2022-11-20T00:54:25;27.65;;;13.35;;
51792;SDS011;37850;53.178;6.376;2022-11-20T00:56:52;27.90;;;13.52;;
51792;SDS011;37850;53.178;6.376;2022-11-20T00:59:18;29.90;;;14.45;;
51792;SDS011;37850;53.178;6.376;2022-11-20T01:01:44;26.08;;;13.32;;
51792;SDS011;37850;53.178;6.376;2022-11-20T01:04:10;28.20;;;13.30;;
51792;SDS011;37850;53.178;6.376;2022-11-20T01:06:36;24.75;;;12.65;;
51792;SDS011;37850;53.178;6.376;2022-11-20T01:09:09;26.20;;;12.68;;
51792;SDS011;37850;53.178;6.376;2022-11-20T01:11:38;23.38;;;12.18;;
51792;SDS011;37850;53.178;6.376;2022-11-20T01:14:07;24.83;;;12.75;;
51792;SDS011;37850;53.178;6.376;2022-11-20T01:16:37;25.25;;;12.30;;
51792;SDS011;37850;53.178;6.376;2022-11-20T01:19:06;21.35;;;12.10;;
51792;SDS011;37850;53.178;6.376;2022-11-20T01:21:35;22.10;;;12.65;;
51792;SDS011;37850;53.178;6.376;2022-11-20T01:24:03;23.42;;;11.77;;
51792;SDS011;37850;53.178;6.376;2022-11-20T01:26:31;23.38;;;12.10;;
51792;SDS011;37850;53.178;6.376;2022-11-20T01:28:59;23.80;;;12.55;;
51792;SDS011;37850;53.178;6.376;2022-11-20T01:31:26;22.92;;;12.20;;
51792;SDS011;37850;53.178;6.376;2022-11-20T01:33:55;24.88;;;13.30;;
51792;SDS011;37850;53.178;6.376;2022-11-20T01:36:24;25.27;;;12.65;;
51792;SDS011;37850;53.178;6.376;2022-11-20T01:38:55;22.15;;;11.57;;
51792;SDS011;37850;53.178;6.376;2022-11-20T01:41:23;22.48;;;12.15;;
51792;SDS011;37850;53.178;6.376;2022-11-20T01:44:08;21.27;;;12.05;;
51792;SDS011;37850;53.178;6.376;2022-11-20T01:46:37;22.58;;;12.13;;
51792;SDS011;37850;53.178;6.376;2022-11-20T01:49:14;26.25;;;12.93;;
51792;SDS011;37850;53.178;6.376;2022-11-20T01:51:52;21.92;;;12.18;;
51792;SDS011;37850;53.178;6.376;2022-11-20T01:54:29;22.65;;;11.60;;
51792;SDS011;37850;53.178;6.376;2022-11-20T01:57:04;23.90;;;12.48;;
51792;SDS011;37850;53.178;6.376;2022-11-20T01:59:33;22.70;;;12.18;;
51792;SDS011;37850;53.178;6.376;2022-11-20T02:02:04;24.85;;;11.25;;
51792;SDS011;37850;53.178;6.376;2022-11-20T02:04:30;22.05;;;11.57;;
51792;SDS011;37850;53.178;6.376;2022-11-20T02:06:59;21.75;;;12.02;;
51792;SDS011;37850;53.178;6.376;2022-11-20T02:09:27;22.42;;;12.60;;
51792;SDS011;37850;53.178;6.376;2022-11-20T02:11:53;24.13;;;11.77;;
51792;SDS011;37850;53.178;6.376;2022-11-20T02:14:23;20.10;;;11.35;;
51792;SDS011;37850;53.178;6.376;2022-11-20T02:16:52;23.17;;;12.52;;
51792;SDS011;37850;53.178;6.376;2022-11-20T02:22:09;23.48;;;12.43;;
51792;SDS011;37850;53.178;6.376;2022-11-20T02:24:43;22.67;;;11.90;;
51792;SDS011;37850;53.178;6.376;2022-11-20T02:27:14;20.08;;;11.60;;
51792;SDS011;37850;53.178;6.376;2022-11-20T02:29:46;25.58;;;12.10;;
51792;SDS011;37850;53.178;6.376;2022-11-20T02:32:25;21.77;;;10.93;;
51792;SDS011;37850;53.178;6.376;2022-11-20T02:34:55;22.27;;;12.13;;
51792;SDS011;37850;53.178;6.376;2022-11-20T02:37:22;21.92;;;11.65;;
51792;SDS011;37850;53.178;6.376;2022-11-20T02:39:51;21.83;;;11.95;;
51792;SDS011;37850;53.178;6.376;2022-11-20T02:42:17;20.30;;;11.38;;
51792;SDS011;37850;53.178;6.376;2022-11-20T02:44:43;20.40;;;12.13;;
51792;SDS011;37850;53.178;6.376;2022-11-20T02:47:09;21.98;;;11.45;;
51792;SDS011;37850;53.178;6.376;2022-11-20T02:49:35;20.25;;;10.82;;
51792;SDS011;37850;53.178;6.376;2022-11-20T02:52:01;20.30;;;11.13;;
51792;SDS011;37850;53.178;6.376;2022-11-20T02:54:26;19.70;;;10.98;;
51792;SDS011;37850;53.178;6.376;2022-11-20T02:56:52;22.40;;;11.35;;
51792;SDS011;37850;53.178;6.376;2022-11-20T02:59:18;19.17;;;11.70;;
51792;SDS011;37850;53.178;6.376;2022-11-20T03:01:44;20.45;;;11.35;;
51792;SDS011;37850;53.178;6.376;2022-11-20T03:04:09;22.77;;;11.35;;
51792;SDS011;37850;53.178;6.376;2022-11-20T03:06:35;21.42;;;11.13;;
51792;SDS011;37850;53.178;6.376;2022-11-20T03:09:01;20.98;;;11.35;;
51792;SDS011;37850;53.178;6.376;2022-11-20T03:11:27;19.73;;;11.00;;
51792;SDS011;37850;53.178;6.376;2022-11-20T03:13:53;19.77;;;10.55;;
51792;SDS011;37850;53.178;6.376;2022-11-20T03:16:19;23.08;;;11.52;;
51792;SDS011;37850;53.178;6.376;2022-11-20T03:18:46;19.73;;;11.32;;
51792;SDS011;37850;53.178;6.376;2022-11-20T03:21:12;20.13;;;11.27;;
51792;SDS011;37850;53.178;6.376;2022-11-20T03:23:39;25.90;;;11.15;;
51792;SDS011;37850;53.178;6.376;2022-11-20T03:28:48;19.83;;;10.93;;
51792;SDS011;37850;53.178;6.376;2022-11-20T03:31:16;22.70;;;11.38;;
51792;SDS011;37850;53.178;6.376;2022-11-20T03:33:43;21.27;;;11.43;;
51792;SDS011;37850;53.178;6.376;2022-11-20T03:36:10;20.65;;;11.25;;
51792;SDS011;37850;53.178;6.376;2022-11-20T03:38:37;19.20;;;10.80;;
51792;SDS011;37850;53.178;6.376;2022-11-20T03:41:07;20.60;;;11.82;;
51792;SDS011;37850;53.178;6.376;2022-11-20T03:43:34;21.80;;;11.35;;
51792;SDS011;37850;53.178;6.376;2022-11-20T03:46:01;20.10;;;11.32;;
51792;SDS011;37850;53.178;6.376;2022-11-20T03:48:26;21.30;;;11.45;;
51792;SDS011;37850;53.178;6.376;2022-11-20T03:50:53;23.52;;;12.20;;
51792;SDS011;37850;53.178;6.376;2022-11-20T03:53:31;21.55;;;11.80;;
51792;SDS011;37850;53.178;6.376;2022-11-20T03:55:57;23.33;;;10.98;;
51792;SDS011;37850;53.178;6.376;2022-11-20T03:58:22;19.50;;;10.30;;
51792;SDS011;37850;53.178;6.376;2022-11-20T04:00:48;18.10;;;10.48;;
51792;SDS011;37850;53.178;6.376;2022-11-20T04:03:14;22.73;;;11.73;;
51792;SDS011;37850;53.178;6.376;2022-11-20T04:05:39;20.55;;;10.13;;
51792;SDS011;37850;53.178;6.376;2022-11-20T04:08:05;18.05;;;10.20;;
51792;SDS011;37850;53.178;6.376;2022-11-20T04:10:31;18.23;;;10.43;;
51792;SDS011;37850;53.178;6.376;2022-11-20T04:12:56;17.45;;;9.90;;
51792;SDS011;37850;53.178;6.376;2022-11-20T04:15:22;18.50;;;9.73;;
51792;SDS011;37850;53.178;6.376;2022-11-20T04:17:48;17.90;;;10.13;;
51792;SDS011;37850;53.178;6.376;2022-11-20T04:20:14;18.05;;;10.13;;
51792;SDS011;37850;53.178;6.376;2022-11-20T04:22:39;18.75;;;9.95;;
51792;SDS011;37850;53.178;6.376;2022-11-20T04:25:05;18.67;;;9.63;;
51792;SDS011;37850;53.178;6.376;2022-11-20T04:27:31;19.65;;;10.15;;
51792;SDS011;37850;53.178;6.376;2022-11-20T04:29:57;17.33;;;9.27;;
51792;SDS011;37850;53.178;6.376;2022-11-20T04:32:22;18.05;;;9.52;;
51792;SDS011;37850;53.178;6.376;2022-11-20T04:34:48;19.05;;;9.73;;
51792;SDS011;37850;53.178;6.376;2022-11-20T04:37:14;16.58;;;9.10;;
51792;SDS011;37850;53.178;6.376;2022-11-20T04:39:39;18.63;;;9.70;;
51792;SDS011;37850;53.178;6.376;2022-11-20T04:42:05;17.20;;;9.55;;
51792;SDS011;37850;53.178;6.376;2022-11-20T04:44:50;15.43;;;9.02;;
51792;SDS011;37850;53.178;6.376;2022-11-20T04:47:15;17.00;;;9.05;;
51792;SDS011;37850;53.178;6.376;2022-11-20T04:49:41;20.48;;;9.38;;
51792;SDS011;37850;53.178;6.376;2022-11-20T04:52:06;16.30;;;8.50;;
51792;SDS011;37850;53.178;6.376;2022-11-20T04:54:32;16.92;;;8.75;;
51792;SDS011;37850;53.178;6.376;2022-11-20T04:56:58;16.40;;;8.75;;
51792;SDS011;37850;53.178;6.376;2022-11-20T04:59:23;14.50;;;8.48;;
51792;SDS011;37850;53.178;6.376;2022-11-20T05:01:50;14.55;;;8.07;;
51792;SDS011;37850;53.178;6.376;2022-11-20T05:04:15;15.68;;;8.90;;
51792;SDS011;37850;53.178;6.376;2022-11-20T05:06:41;14.20;;;8.32;;
51792;SDS011;37850;53.178;6.376;2022-11-20T05:09:09;16.63;;;8.68;;
51792;SDS011;37850;53.178;6.376;2022-11-20T05:11:34;17.63;;;9.32;;
51792;SDS011;37850;53.178;6.376;2022-11-20T05:14:00;16.42;;;8.95;;
51792;SDS011;37850;53.178;6.376;2022-11-20T05:16:26;17.17;;;8.65;;
51792;SDS011;37850;53.178;6.376;2022-11-20T05:18:52;17.50;;;9.50;;
51792;SDS011;37850;53.178;6.376;2022-11-20T05:21:22;19.45;;;8.60;;
51792;SDS011;37850;53.178;6.376;2022-11-20T05:23:48;17.50;;;9.27;;
51792;SDS011;37850;53.178;6.376;2022-11-20T05:26:14;20.38;;;9.57;;
51792;SDS011;37850;53.178;6.376;2022-11-20T05:28:42;17.98;;;9.35;;
51792;SDS011;37850;53.178;6.376;2022-11-20T05:31:09;15.40;;;8.57;;
51792;SDS011;37850;53.178;6.376;2022-11-20T05:33:46;16.00;;;8.93;;
51792;SDS011;37850;53.178;6.376;2022-11-20T05:36:12;17.60;;;8.98;;
51792;SDS011;37850;53.178;6.376;2022-11-20T05:38:39;16.92;;;9.23;;
51792;SDS011;37850;53.178;6.376;2022-11-20T05:43:40;15.13;;;8.55;;
51792;SDS011;37850;53.178;6.376;2022-11-20T05:46:08;15.32;;;8.57;;
51792;SDS011;37850;53.178;6.376;2022-11-20T05:48:34;14.82;;;8.82;;
51792;SDS011;37850;53.178;6.376;2022-11-20T05:51:01;16.58;;;8.90;;
51792;SDS011;37850;53.178;6.376;2022-11-20T05:53:28;15.95;;;9.00;;
51792;SDS011;37850;53.178;6.376;2022-11-20T05:56:00;14.80;;;8.55;;
51792;SDS011;37850;53.178;6.376;2022-11-20T05:58:27;17.13;;;9.48;;
51792;SDS011;37850;53.178;6.376;2022-11-20T06:00:53;13.70;;;7.75;;
51792;SDS011;37850;53.178;6.376;2022-11-20T06:03:31;15.27;;;8.68;;
51792;SDS011;37850;53.178;6.376;2022-11-20T06:05:58;15.18;;;8.77;;
51792;SDS011;37850;53.178;6.376;2022-11-20T06:08:24;17.13;;;8.82;;
51792;SDS011;37850;53.178;6.376;2022-11-20T06:10:50;15.57;;;8.95;;
51792;SDS011;37850;53.178;6.376;2022-11-20T06:13:16;17.20;;;8.75;;
51792;SDS011;37850;53.178;6.376;2022-11-20T06:15:41;14.77;;;8.13;;
51792;SDS011;37850;53.178;6.376;2022-11-20T06:18:07;16.95;;;9.23;;
51792;SDS011;37850;53.178;6.376;2022-11-20T06:20:33;14.23;;;7.65;;
51792;SDS011;37850;53.178;6.376;2022-11-20T06:22:58;16.02;;;8.90;;
51792;SDS011;37850;53.178;6.376;2022-11-20T06:25:27;16.27;;;7.68;;
51792;SDS011;37850;53.178;6.376;2022-11-20T06:27:52;13.68;;;7.68;;
51792;SDS011;37850;53.178;6.376;2022-11-20T06:30:18;17.25;;;8.82;;
51792;SDS011;37850;53.178;6.376;2022-11-20T06:32:44;15.02;;;8.27;;
51792;SDS011;37850;53.178;6.376;2022-11-20T06:35:09;13.60;;;7.93;;
51792;SDS011;37850;53.178;6.376;2022-11-20T06:37:35;13.82;;;7.60;;
51792;SDS011;37850;53.178;6.376;2022-11-20T06:40:01;13.93;;;7.90;;
51792;SDS011;37850;53.178;6.376;2022-11-20T06:42:27;14.43;;;7.90;;
51792;SDS011;37850;53.178;6.376;2022-11-20T06:44:52;15.43;;;8.60;;
51792;SDS011;37850;53.178;6.376;2022-11-20T06:47:18;14.90;;;7.88;;
51792;SDS011;37850;53.178;6.376;2022-11-20T06:49:44;15.63;;;8.43;;
51792;SDS011;37850;53.178;6.376;2022-11-20T06:52:09;16.40;;;8.75;;
51792;SDS011;37850;53.178;6.376;2022-11-20T06:54:35;14.20;;;8.10;;
51792;SDS011;37850;53.178;6.376;2022-11-20T06:57:01;15.68;;;8.55;;
51792;SDS011;37850;53.178;6.376;2022-11-20T06:59:26;15.02;;;8.63;;
51792;SDS011;37850;53.178;6.376;2022-11-20T07:01:52;15.48;;;8.32;;
51792;SDS011;37850;53.178;6.376;2022-11-20T07:04:17;15.43;;;8.35;;
51792;SDS011;37850;53.178;6.376;2022-11-20T07:06:43;17.35;;;8.73;;
51792;SDS011;37850;53.178;6.376;2022-11-20T07:09:09;16.33;;;8.18;;
51792;SDS011;37850;53.178;6.376;2022-11-20T07:11:34;15.55;;;8.40;;
51792;SDS011;37850;53.178;6.376;2022-11-20T07:14:00;17.15;;;8.82;;
51792;SDS011;37850;53.178;6.376;2022-11-20T07:16:26;16.63;;;8.63;;
51792;SDS011;37850;53.178;6.376;2022-11-20T07:18:52;17.95;;;8.90;;
51792;SDS011;37850;53.178;6.376;2022-11-20T07:21:17;17.10;;;9.00;;
51792;SDS011;37850;53.178;6.376;2022-11-20T07:23:43;17.55;;;9.05;;
51792;SDS011;37850;53.178;6.376;2022-11-20T07:26:09;15.27;;;8.32;;
51792;SDS011;37850;53.178;6.376;2022-11-20T07:28:35;14.95;;;8.52;;
51792;SDS011;37850;53.178;6.376;2022-11-20T07:31:02;18.45;;;9.32;;
51792;SDS011;37850;53.178;6.376;2022-11-20T07:33:28;15.95;;;8.85;;
51792;SDS011;37850;53.178;6.376;2022-11-20T07:35:54;17.30;;;9.45;;
51792;SDS011;37850;53.178;6.376;2022-11-20T07:38:20;17.38;;;9.27;;
51792;SDS011;37850;53.178;6.376;2022-11-20T07:40:46;16.05;;;9.15;;
51792;SDS011;37850;53.178;6.376;2022-11-20T07:43:11;16.70;;;8.77;;
51792;SDS011;37850;53.178;6.376;2022-11-20T07:45:37;16.15;;;9.30;;
51792;SDS011;37850;53.178;6.376;2022-11-20T07:48:03;17.15;;;9.63;;
51792;SDS011;37850;53.178;6.376;2022-11-20T07:50:29;17.70;;;8.98;;
51792;SDS011;37850;53.178;6.376;2022-11-20T07:53:01;16.80;;;9.32;;
51792;SDS011;37850;53.178;6.376;2022-11-20T07:55:28;14.68;;;7.82;;
51792;SDS011;37850;53.178;6.376;2022-11-20T07:57:57;14.73;;;8.63;;
51792;SDS011;37850;53.178;6.376;2022-11-20T08:00:23;16.58;;;8.90;;
51792;SDS011;37850;53.178;6.376;2022-11-20T08:02:52;17.42;;;9.15;;
51792;SDS011;37850;53.178;6.376;2022-11-20T08:05:18;16.88;;;9.32;;
51792;SDS011;37850;53.178;6.376;2022-11-20T08:07:44;18.15;;;9.85;;
51792;SDS011;37850;53.178;6.376;2022-11-20T08:10:10;15.70;;;8.80;;
51792;SDS011;37850;53.178;6.376;2022-11-20T08:12:44;15.45;;;8.32;;
51792;SDS011;37850;53.178;6.376;2022-11-20T08:15:29;18.10;;;9.18;;
51792;SDS011;37850;53.178;6.376;2022-11-20T08:18:00;16.70;;;9.57;;
51792;SDS011;37850;53.178;6.376;2022-11-20T08:20:30;15.65;;;8.65;;
51792;SDS011;37850;53.178;6.376;2022-11-20T08:22:59;16.77;;;9.52;;
51792;SDS011;37850;53.178;6.376;2022-11-20T08:25:26;16.67;;;9.65;;
51792;SDS011;37850;53.178;6.376;2022-11-20T08:27:59;19.50;;;10.13;;
51792;SDS011;37850;53.178;6.376;2022-11-20T08:30:26;19.92;;;9.40;;
51792;SDS011;37850;53.178;6.376;2022-11-20T08:32:52;19.35;;;9.38;;
51792;SDS011;37850;53.178;6.376;2022-11-20T08:35:19;17.90;;;9.88;;
51792;SDS011;37850;53.178;6.376;2022-11-20T08:37:48;18.20;;;9.63;;
51792;SDS011;37850;53.178;6.376;2022-11-20T08:40:14;19.20;;;10.13;;
51792;SDS011;37850;53.178;6.376;2022-11-20T08:42:50;19.10;;;10.02;;
51792;SDS011;37850;53.178;6.376;2022-11-20T08:45:16;16.95;;;9.73;;
51792;SDS011;37850;53.178;6.376;2022-11-20T08:47:43;18.00;;;9.57;;
51792;SDS011;37850;53.178;6.376;2022-11-20T08:50:10;18.10;;;10.38;;
51792;SDS011;37850;53.178;6.376;2022-11-20T08:52:37;16.50;;;9.52;;
51792;SDS011;37850;53.178;6.376;2022-11-20T08:55:03;19.80;;;10.18;;
51792;SDS011;37850;53.178;6.376;2022-11-20T08:57:33;19.02;;;9.82;;
51792;SDS011;37850;53.178;6.376;2022-11-20T09:00:00;15.68;;;9.40;;
51792;SDS011;37850;53.178;6.376;2022-11-20T09:02:28;18.15;;;10.32;;
51792;SDS011;37850;53.178;6.376;2022-11-20T09:04:53;16.92;;;9.45;;
51792;SDS011;37850;53.178;6.376;2022-11-20T09:07:21;18.88;;;9.88;;
51792;SDS011;37850;53.178;6.376;2022-11-20T09:09:47;18.23;;;9.70;;
51792;SDS011;37850;53.178;6.376;2022-11-20T09:12:13;20.30;;;10.88;;
51792;SDS011;37850;53.178;6.376;2022-11-20T09:14:39;17.08;;;9.15;;
51792;SDS011;37850;53.178;6.376;2022-11-20T09:17:05;18.08;;;9.82;;
51792;SDS011;37850;53.178;6.376;2022-11-20T09:19:32;17.25;;;9.95;;
51792;SDS011;37850;53.178;6.376;2022-11-20T09:21:58;16.20;;;8.98;;
51792;SDS011;37850;53.178;6.376;2022-11-20T09:24:25;17.23;;;9.95;;
51792;SDS011;37850;53.178;6.376;2022-11-20T09:26:51;17.65;;;9.57;;
51792;SDS011;37850;53.178;6.376;2022-11-20T09:29:17;16.52;;;9.63;;
51792;SDS011;37850;53.178;6.376;2022-11-20T09:31:43;18.02;;;9.85;;
51792;SDS011;37850;53.178;6.376;2022-11-20T09:34:09;17.48;;;10.00;;
51792;SDS011;37850;53.178;6.376;2022-11-20T09:36:34;17.35;;;8.82;;
51792;SDS011;37850;53.178;6.376;2022-11-20T09:39:00;17.92;;;9.38;;
51792;SDS011;37850;53.178;6.376;2022-11-20T09:47:14;16.63;;;8.98;;
51792;SDS011;37850;53.178;6.376;2022-11-20T09:55:06;16.13;;;9.40;;
51792;SDS011;37850;53.178;6.376;2022-11-20T09:57:36;19.77;;;9.75;;
51792;SDS011;37850;53.178;6.376;2022-11-20T10:00:05;17.42;;;10.05;;
51792;SDS011;37850;53.178;6.376;2022-11-20T10:02:46;16.63;;;9.30;;
51792;SDS011;37850;53.178;6.376;2022-11-20T10:05:24;18.15;;;8.88;;
51792;SDS011;37850;53.178;6.376;2022-11-20T10:08:21;15.50;;;8.88;;
51792;SDS011;37850;53.178;6.376;2022-11-20T10:24:29;14.48;;;8.70;;
51792;SDS011;37850;53.178;6.376;2022-11-20T10:30:01;14.35;;;8.65;;
51792;SDS011;37850;53.178;6.376;2022-11-20T10:32:35;15.77;;;9.02;;
51792;SDS011;37850;53.178;6.376;2022-11-20T10:37:42;15.02;;;8.95;;
51792;SDS011;37850;53.178;6.376;2022-11-20T10:42:53;16.77;;;9.85;;
51792;SDS011;37850;53.178;6.376;2022-11-20T10:47:56;18.40;;;9.43;;
51792;SDS011;37850;53.178;6.376;2022-11-20T10:50:32;14.93;;;8.30;;
51792;SDS011;37850;53.178;6.376;2022-11-20T10:56:05;17.38;;;9.65;;
51792;SDS011;37850;53.178;6.376;2022-11-20T10:59:02;16.35;;;8.82;;
51792;SDS011;37850;53.178;6.376;2022-11-20T11:01:28;16.08;;;9.50;;
51792;SDS011;37850;53.178;6.376;2022-11-20T11:03:55;17.50;;;9.35;;
51792;SDS011;37850;53.178;6.376;2022-11-20T11:08:51;17.50;;;8.77;;
51792;SDS011;37850;53.178;6.376;2022-11-20T11:11:21;16.77;;;9.65;;
51792;SDS011;37850;53.178;6.376;2022-11-20T11:13:52;18.58;;;9.00;;
51792;SDS011;37850;53.178;6.376;2022-11-20T11:16:22;16.25;;;8.60;;
51792;SDS011;37850;53.178;6.376;2022-11-20T11:18:50;18.27;;;9.35;;
51792;SDS011;37850;53.178;6.376;2022-11-20T11:21:21;19.23;;;10.88;;
51792;SDS011;37850;53.178;6.376;2022-11-20T11:23:56;18.58;;;9.68;;
51792;SDS011;37850;53.178;6.376;2022-11-20T11:26:26;15.48;;;8.52;;
51792;SDS011;37850;53.178;6.376;2022-11-20T11:28:56;15.32;;;8.15;;
51792;SDS011;37850;53.178;6.376;2022-11-20T11:31:23;15.68;;;9.00;;
51792;SDS011;37850;53.178;6.376;2022-11-20T11:33:50;16.33;;;8.32;;
51792;SDS011;37850;53.178;6.376;2022-11-20T11:36:20;15.75;;;8.18;;
51792;SDS011;37850;53.178;6.376;2022-11-20T11:38:50;13.07;;;7.57;;
51792;SDS011;37850;53.178;6.376;2022-11-20T11:41:19;14.80;;;7.38;;
51792;SDS011;37850;53.178;6.376;2022-11-20T11:43:52;12.77;;;6.97;;
51792;SDS011;37850;53.178;6.376;2022-11-20T11:46:54;12.32;;;6.95;;
51792;SDS011;37850;53.178;6.376;2022-11-20T11:49:21;15.20;;;6.22;;
51792;SDS011;37850;53.178;6.376;2022-11-20T11:51:52;12.98;;;6.65;;
51792;SDS011;37850;53.178;6.376;2022-11-20T11:54:28;12.10;;;6.57;;
51792;SDS011;37850;53.178;6.376;2022-11-20T11:56:55;11.93;;;6.25;;
51792;SDS011;37850;53.178;6.376;2022-11-20T11:59:33;13.38;;;6.35;;
51792;SDS011;37850;53.178;6.376;2022-11-20T12:02:17;11.27;;;6.15;;
51792;SDS011;37850;53.178;6.376;2022-11-20T12:05:14;11.10;;;5.45;;
51792;SDS011;37850;53.178;6.376;2022-11-20T12:08:11;11.55;;;5.60;;
51792;SDS011;37850;53.178;6.376;2022-11-20T12:11:03;10.93;;;6.35;;
51792;SDS011;37850;53.178;6.376;2022-11-20T12:13:40;11.15;;;5.95;;
51792;SDS011;37850;53.178;6.376;2022-11-20T12:16:14;11.00;;;5.47;;
51792;SDS011;37850;53.178;6.376;2022-11-20T12:18:43;11.70;;;6.80;;
51792;SDS011;37850;53.178;6.376;2022-11-20T12:37:22;9.43;;;5.55;;
51792;SDS011;37850;53.178;6.376;2022-11-20T12:40:32;9.55;;;4.68;;
51792;SDS011;37850;53.178;6.376;2022-11-20T12:43:21;9.23;;;4.25;;
51792;SDS011;37850;53.178;6.376;2022-11-20T12:51:57;10.68;;;5.60;;
51792;SDS011;37850;53.178;6.376;2022-11-20T12:57:39;11.88;;;5.10;;
51792;SDS011;37850;53.178;6.376;2022-11-20T13:00:21;10.07;;;5.43;;
51792;SDS011;37850;53.178;6.376;2022-11-20T13:08:55;9.85;;;5.00;;
51792;SDS011;37850;53.178;6.376;2022-11-20T13:11:30;10.18;;;5.13;;
51792;SDS011;37850;53.178;6.376;2022-11-20T13:17:36;11.07;;;5.70;;
51792;SDS011;37850;53.178;6.376;2022-11-20T13:19:51;9.82;;;4.68;;
51792;SDS011;37850;53.178;6.376;2022-11-20T13:22:26;11.15;;;5.28;;
51792;SDS011;37850;53.178;6.376;2022-11-20T13:24:54;10.02;;;4.93;;
51792;SDS011;37850;53.178;6.376;2022-11-20T13:27:23;7.93;;;4.60;;
51792;SDS011;37850;53.178;6.376;2022-11-20T13:30:00;10.35;;;5.13;;
51792;SDS011;37850;53.178;6.376;2022-11-20T13:32:47;10.20;;;5.50;;
51792;SDS011;37850;53.178;6.376;2022-11-20T13:35:54;10.75;;;4.93;;
51792;SDS011;37850;53.178;6.376;2022-11-20T13:38:22;9.65;;;4.95;;
51792;SDS011;37850;53.178;6.376;2022-11-20T13:40:55;11.05;;;6.25;;
51792;SDS011;37850;53.178;6.376;2022-11-20T13:45:57;10.77;;;5.85;;
51792;SDS011;37850;53.178;6.376;2022-11-20T13:49:05;9.68;;;5.00;;
51792;SDS011;37850;53.178;6.376;2022-11-20T13:51:35;9.52;;;4.93;;
51792;SDS011;37850;53.178;6.376;2022-11-20T13:54:14;9.48;;;5.10;;
51792;SDS011;37850;53.178;6.376;2022-11-20T13:59:58;15.35;;;7.32;;
51792;SDS011;37850;53.178;6.376;2022-11-20T14:02:35;17.65;;;8.02;;
51792;SDS011;37850;53.178;6.376;2022-11-20T14:05:01;15.63;;;8.05;;
51792;SDS011;37850;53.178;6.376;2022-11-20T14:07:33;14.23;;;7.10;;
51792;SDS011;37850;53.178;6.376;2022-11-20T14:10:02;12.40;;;7.22;;
51792;SDS011;37850;53.178;6.376;2022-11-20T14:12:30;15.35;;;8.20;;
51792;SDS011;37850;53.178;6.376;2022-11-20T14:14:58;18.20;;;9.00;;
51792;SDS011;37850;53.178;6.376;2022-11-20T14:17:29;13.50;;;7.65;;
51792;SDS011;37850;53.178;6.376;2022-11-20T14:19:56;15.65;;;8.23;;
51792;SDS011;37850;53.178;6.376;2022-11-20T14:22:26;18.90;;;10.85;;
51792;SDS011;37850;53.178;6.376;2022-11-20T14:25:06;19.38;;;11.75;;
51792;SDS011;37850;53.178;6.376;2022-11-20T14:27:33;16.45;;;10.02;;
51792;SDS011;37850;53.178;6.376;2022-11-20T14:30:02;12.05;;;6.18;;
51792;SDS011;37850;53.178;6.376;2022-11-20T14:32:29;12.55;;;6.43;;
51792;SDS011;37850;53.178;6.376;2022-11-20T14:34:56;9.60;;;5.38;;
51792;SDS011;37850;53.178;6.376;2022-11-20T14:39:55;10.95;;;5.88;;
51792;SDS011;37850;53.178;6.376;2022-11-20T14:42:25;13.73;;;6.18;;
51792;SDS011;37850;53.178;6.376;2022-11-20T14:44:55;11.88;;;7.10;;
51792;SDS011;37850;53.178;6.376;2022-11-20T14:47:25;14.20;;;7.57;;
51792;SDS011;37850;53.178;6.376;2022-11-20T14:49:52;11.35;;;6.30;;
51792;SDS011;37850;53.178;6.376;2022-11-20T14:52:21;11.05;;;6.65;;
51792;SDS011;37850;53.178;6.376;2022-11-20T14:54:49;10.52;;;5.78;;
51792;SDS011;37850;53.178;6.376;2022-11-20T15:02:42;17.35;;;8.90;;
51792;SDS011;37850;53.178;6.376;2022-11-20T15:05:09;14.43;;;7.38;;
51792;SDS011;37850;53.178;6.376;2022-11-20T15:07:36;15.98;;;7.95;;
51792;SDS011;37850;53.178;6.376;2022-11-20T15:10:20;12.93;;;7.15;;
51792;SDS011;37850;53.178;6.376;2022-11-20T15:15:31;13.00;;;7.00;;
51792;SDS011;37850;53.178;6.376;2022-11-20T15:18:00;11.95;;;6.75;;
51792;SDS011;37850;53.178;6.376;2022-11-20T15:20:30;12.30;;;7.05;;
51792;SDS011;37850;53.178;6.376;2022-11-20T15:22:58;13.43;;;7.15;;
51792;SDS011;37850;53.178;6.376;2022-11-20T15:25:24;17.05;;;8.50;;
51792;SDS011;37850;53.178;6.376;2022-11-20T15:27:56;13.13;;;7.80;;
51792;SDS011;37850;53.178;6.376;2022-11-20T15:30:22;14.48;;;7.80;;
51792;SDS011;37850;53.178;6.376;2022-11-20T15:32:48;15.10;;;8.10;;
51792;SDS011;37850;53.178;6.376;2022-11-20T15:35:15;13.63;;;8.05;;
51792;SDS011;37850;53.178;6.376;2022-11-20T15:37:41;15.20;;;7.57;;
51792;SDS011;37850;53.178;6.376;2022-11-20T15:40:07;11.98;;;7.10;;
51792;SDS011;37850;53.178;6.376;2022-11-20T15:42:34;13.45;;;7.18;;
51792;SDS011;37850;53.178;6.376;2022-11-20T15:45:00;16.85;;;7.97;;
51792;SDS011;37850;53.178;6.376;2022-11-20T15:47:28;16.25;;;8.70;;
51792;SDS011;37850;53.178;6.376;2022-11-20T15:49:55;17.85;;;9.20;;
51792;SDS011;37850;53.178;6.376;2022-11-20T15:52:21;18.23;;;8.95;;
51792;SDS011;37850;53.178;6.376;2022-11-20T15:54:47;16.15;;;8.50;;
51792;SDS011;37850;53.178;6.376;2022-11-20T15:57:16;11.25;;;6.72;;
51792;SDS011;37850;53.178;6.376;2022-11-20T15:59:41;11.65;;;6.55;;
51792;SDS011;37850;53.178;6.376;2022-11-20T16:02:10;13.88;;;7.05;;
51792;SDS011;37850;53.178;6.376;2022-11-20T16:04:37;15.20;;;7.45;;
51792;SDS011;37850;53.178;6.376;2022-11-20T16:07:03;15.00;;;7.55;;
51792;SDS011;37850;53.178;6.376;2022-11-20T16:09:29;17.27;;;9.27;;
51792;SDS011;37850;53.178;6.376;2022-11-20T16:11:55;19.02;;;9.60;;
51792;SDS011;37850;53.178;6.376;2022-11-20T16:14:23;19.45;;;10.05;;
51792;SDS011;37850;53.178;6.376;2022-11-20T16:17:07;14.93;;;8.27;;
51792;SDS011;37850;53.178;6.376;2022-11-20T16:19:33;13.10;;;7.80;;
51792;SDS011;37850;53.178;6.376;2022-11-20T16:21:58;14.75;;;8.25;;